Time;durP1;ratioP1;P1;durP2;ratioP2;P2;SDS_P1;SDS_P2;PMS_P1;PMS_P2;Temp;Humidity;BMP_temperature;BMP_pressure;BME280_temperature;BME280_humidity;BME280_pressure;Samples;Min_cycle;Max_cycle;Signal;HPM_P1;HPM_P2
2024/01/08 00:01:05;;;;;;;2.25;1.70;;;;;;;2.24;69.70;97068.53;1223460;75;2929539;-66
2024/01/08 00:03:41;;;;;;;1.90;1.70;;;;;;;2.17;70.01;97077.59;1223969;75;2904873;-62
2024/01/08 00:06:14;;;;;;;1.90;1.70;;;;;;;2.09;69.53;97068.19;1223646;75;2920649;-63
2024/01/08 00:08:46;;;;;;;4.10;2.15;;;;;;;2.10;69.81;97069.72;1223767;75;2921247;-62
2024/01/08 00:11:19;;;;;;;2.25;1.90;;;;;;;2.11;69.56;97061.19;1223751;75;2932000;-63
2024/01/08 00:13:55;;;;;;;2.90;2.10;;;;;;;2.12;69.55;97065.41;1223444;75;2928062;-65
2024/01/08 00:16:28;;;;;;;2.50;1.75;;;;;;;2.16;70.20;97067.22;1223967;75;2924015;-65
2024/01/08 00:19:00;;;;;;;1.65;1.55;;;;;;;2.14;69.92;97067.66;1223875;75;2935644;-65
2024/01/08 00:21:33;;;;;;;2.95;1.60;;;;;;;2.17;69.46;97069.50;1223882;75;2929796;-64
2024/01/08 00:24:06;;;;;;;1.80;1.55;;;;;;;2.19;69.51;97071.75;1224187;75;2920374;-65
2024/01/08 00:26:39;;;;;;;1.75;1.50;;;;;;;2.17;69.04;97072.22;1224478;75;2922636;-62
2024/01/08 00:29:14;;;;;;;1.45;1.35;;;;;;;2.19;69.63;97071.75;1223409;75;2927498;-65
2024/01/08 00:31:47;;;;;;;1.95;1.50;;;;;;;2.19;69.90;97082.56;1223629;75;2947814;-64
2024/01/08 00:34:20;;;;;;;2.05;1.60;;;;;;;2.14;69.07;97070.34;1224192;75;2921185;-68
2024/01/08 00:36:53;;;;;;;1.80;1.70;;;;;;;2.13;69.06;97076.94;1223732;75;2926904;-66
2024/01/08 00:39:27;;;;;;;2.30;1.60;;;;;;;2.25;69.73;97084.28;1223718;75;2922202;-63
2024/01/08 00:42:00;;;;;;;1.55;1.45;;;;;;;2.18;68.82;97081.06;1223983;75;2929673;-66
2024/01/08 00:44:35;;;;;;;2.25;1.50;;;;;;;2.18;69.63;97081.06;1223937;75;2926902;-64
2024/01/08 00:47:08;;;;;;;2.05;1.70;;;;;;;2.13;69.44;97088.50;1224567;75;2927017;-64
2024/01/08 00:49:41;;;;;;;2.10;1.80;;;;;;;2.17;69.02;97093.81;1223516;75;2940596;-66
2024/01/08 00:52:14;;;;;;;2.30;1.75;;;;;;;2.19;69.74;97098.75;1223962;75;2922444;-61
2024/01/08 00:54:47;;;;;;;1.70;1.60;;;;;;;2.16;69.85;97094.22;1223648;75;2930426;-63
2024/01/08 00:57:20;;;;;;;1.85;1.40;;;;;;;2.10;69.34;97102.88;1223887;75;2923668;-65
2024/01/08 00:59:55;;;;;;;1.60;1.50;;;;;;;2.15;68.79;97098.13;1223979;75;2922251;-63
2024/01/08 01:02:28;;;;;;;1.85;1.55;;;;;;;2.13;69.67;97104.69;1224202;75;2925022;-65
2024/01/08 01:05:01;;;;;;;1.40;1.30;;;;;;;2.08;69.74;97107.19;1223846;75;2926834;-68
2024/01/08 01:07:34;;;;;;;1.45;1.35;;;;;;;2.14;68.98;97105.44;1223863;75;2928386;-67
2024/01/08 01:10:08;;;;;;;2.05;1.80;;;;;;;2.13;69.17;97118.19;1224295;75;2943519;-65
2024/01/08 01:12:41;;;;;;;1.95;1.45;;;;;;;2.19;69.33;97114.97;1223772;75;2923413;-64
2024/01/08 01:15:17;;;;;;;1.70;1.40;;;;;;;2.18;68.72;97110.75;1223584;75;2924786;-66
2024/01/08 01:17:50;;;;;;;1.60;1.50;;;;;;;2.19;69.19;97115.75;1222537;75;2985849;-67
2024/01/08 01:20:23;;;;;;;1.85;1.65;;;;;;;2.10;69.43;97119.06;1223561;75;2931031;-63
2024/01/08 01:22:55;;;;;;;1.50;1.40;;;;;;;2.05;69.25;97106.13;1223868;75;2922237;-64
2024/01/08 01:25:28;;;;;;;1.80;1.60;;;;;;;2.11;69.56;97120.56;1224442;75;2926538;-66
2024/01/08 01:28:01;;;;;;;1.45;1.35;;;;;;;2.10;69.24;97118.31;1223733;75;2933134;-67
2024/01/08 01:30:37;;;;;;;1.70;1.50;;;;;;;2.08;69.17;97129.53;1223783;75;2928525;-63
2024/01/08 01:33:09;;;;;;;1.65;1.30;;;;;;;2.09;70.12;97128.38;1224316;75;2924791;-62
2024/01/08 01:35:42;;;;;;;1.75;1.50;;;;;;;2.08;68.85;97116.03;1223748;75;2934039;-63
2024/01/08 01:38:15;;;;;;;1.80;1.50;;;;;;;2.12;69.69;97124.81;1224000;75;2932762;-65
2024/01/08 01:40:49;;;;;;;1.55;1.40;;;;;;;2.14;68.92;97124.34;1223885;75;2925198;-63
2024/01/08 01:43:28;;;;;;;1.50;1.40;;;;;;;2.17;68.12;97130.88;1223676;75;2927599;-64
2024/01/08 01:46:08;;;;;;;1.70;1.20;;;;;;;2.16;68.55;97127.38;1223343;75;2927021;-66
2024/01/08 01:48:41;;;;;;;1.50;1.40;;;;;;;2.12;68.67;97135.59;1223186;75;2929144;-66
2024/01/08 01:51:14;;;;;;;1.40;1.30;;;;;;;2.08;68.95;97132.25;1223361;75;2928333;-65
2024/01/08 01:53:47;;;;;;;1.60;1.50;;;;;;;2.21;71.23;97136.88;1223201;75;2989838;-63
2024/01/08 01:56:20;;;;;;;3.30;2.10;;;;;;;2.05;77.92;97140.47;1223409;75;2938304;-65
2024/01/08 01:58:54;;;;;;;1.50;1.40;;;;;;;1.98;72.14;97141.44;1223849;75;2928594;-64
2024/01/08 02:01:29;;;;;;;2.80;2.10;;;;;;;1.97;82.35;97137.19;1224556;75;2924946;-66
2024/01/08 02:04:03;;;;;;;3.80;3.10;;;;;;;1.71;100.00;97136.44;1224842;75;2917534;-63
2024/01/08 02:06:38;;;;;;;3.50;2.55;;;;;;;1.90;100.00;97135.47;1225324;75;2928626;-62
2024/01/08 02:09:11;;;;;;;3.65;2.80;;;;;;;1.76;100.00;97133.19;1225148;75;2924722;-67
2024/01/08 02:11:44;;;;;;;3.00;2.70;;;;;;;1.79;100.00;97142.38;1225118;75;2915870;-64
2024/01/08 02:14:19;;;;;;;3.65;2.90;;;;;;;1.55;100.00;97139.19;1224691;75;2935838;-65
2024/01/08 02:16:54;;;;;;;5.65;4.25;;;;;;;1.32;100.00;97140.19;1224001;75;2920778;-63
2024/01/08 02:19:27;;;;;;;4.95;4.00;;;;;;;1.40;100.00;97134.19;1224887;75;2922854;-67
2024/01/08 02:21:59;;;;;;;3.55;2.95;;;;;;;1.57;100.00;97142.97;1224900;75;2916496;-65
2024/01/08 02:24:36;;;;;;;3.20;2.85;;;;;;;1.59;100.00;97145.22;1225321;75;2917640;-64
2024/01/08 02:27:09;;;;;;;3.10;2.80;;;;;;;1.53;100.00;97147.69;1225161;75;2916876;-64
2024/01/08 02:29:42;;;;;;;3.85;2.95;;;;;;;1.62;100.00;97152.47;1224662;75;2917585;-66
2024/01/08 02:32:15;;;;;;;3.15;2.60;;;;;;;1.56;100.00;97146.09;1224854;75;2930994;-67
2024/01/08 02:34:48;;;;;;;3.15;2.65;;;;;;;1.54;100.00;97151.94;1225656;75;2922325;-64
2024/01/08 02:37:21;;;;;;;2.60;2.40;;;;;;;1.54;100.00;97154.63;1224831;75;2938213;-67
2024/01/08 02:39:56;;;;;;;3.65;2.85;;;;;;;1.53;100.00;97157.75;1225447;75;2912049;-63
2024/01/08 02:42:29;;;;;;;3.20;2.85;;;;;;;1.40;100.00;97158.47;1225740;75;2912528;-64
2024/01/08 02:45:02;;;;;;;4.30;3.40;;;;;;;1.30;100.00;97156.81;1222233;75;2920330;-63
2024/01/08 02:47:37;;;;;;;3.65;3.25;;;;;;;1.35;100.00;97163.59;1226099;75;2913606;-64
2024/01/08 02:50:11;;;;;;;3.50;3.20;;;;;;;1.32;100.00;97159.81;1225765;75;2917643;-65
2024/01/08 02:52:45;;;;;;;3.20;2.80;;;;;;;1.32;100.00;97162.50;1219382;75;3115235;-62
2024/01/08 02:55:20;;;;;;;3.10;2.70;;;;;;;1.24;100.00;97166.59;1225747;75;2920280;-65
2024/01/08 02:57:53;;;;;;;5.35;3.05;;;;;;;1.35;100.00;97166.28;1225632;75;2931568;-66
2024/01/08 03:00:26;;;;;;;3.85;2.85;;;;;;;1.45;100.00;97165.28;1225736;75;2907782;-65
2024/01/08 03:02:59;;;;;;;3.20;2.45;;;;;;;1.35;100.00;97174.38;1225822;75;2921398;-63
2024/01/08 03:05:31;;;;;;;3.35;3.00;;;;;;;1.08;100.00;97178.16;1225146;75;2921324;-63
2024/01/08 03:08:04;;;;;;;3.60;3.05;;;;;;;1.23;100.00;97171.22;1224615;75;2917000;-63
2024/01/08 03:10:40;;;;;;;2.85;2.55;;;;;;;1.37;100.00;97182.81;1225673;75;2914889;-66
2024/01/08 03:13:12;;;;;;;3.65;2.90;;;;;;;1.27;100.00;97177.28;1225335;75;2938167;-65
2024/01/08 03:15:45;;;;;;;4.75;3.50;;;;;;;1.20;100.00;97187.47;1224141;75;2921553;-64
2024/01/08 03:18:18;;;;;;;4.35;3.35;;;;;;;1.31;100.00;97176.44;1224212;75;2918622;-67
2024/01/08 03:20:51;;;;;;;4.65;3.10;;;;;;;1.34;100.00;97186.38;1224563;75;2922943;-68
2024/01/08 03:23:24;;;;;;;3.60;2.80;;;;;;;1.34;100.00;97186.38;1224498;83;2918153;-65
2024/01/08 03:25:59;;;;;;;5.35;3.95;;;;;;;1.16;99.72;97195.66;1224048;75;2920995;-63
2024/01/08 03:28:32;;;;;;;1.90;1.70;;;;;;;1.42;81.37;97179.59;1221671;75;2963245;-64
2024/01/08 03:31:05;;;;;;;1.30;1.20;;;;;;;1.60;78.07;97185.28;1223951;75;2932198;-66
2024/01/08 03:33:38;;;;;;;2.75;2.10;;;;;;;1.61;82.08;97203.00;1224880;75;2920747;-63
2024/01/08 03:36:13;;;;;;;2.30;1.75;;;;;;;1.75;83.19;97187.59;1224674;75;2925088;-67
2024/01/08 03:38:46;;;;;;;1.80;1.60;;;;;;;1.67;78.89;97195.88;1224867;75;2914462;-64
2024/01/08 03:41:22;;;;;;;1.50;1.40;;;;;;;1.69;78.97;97195.44;1224768;75;2920246;-64
2024/01/08 03:43:55;;;;;;;2.35;1.55;;;;;;;1.72;75.81;97202.69;1224505;75;2915202;-63
2024/01/08 03:46:28;;;;;;;1.55;1.45;;;;;;;1.86;72.72;97213.09;1224954;75;2916038;-65
2024/01/08 03:49:01;;;;;;;1.45;1.10;;;;;;;1.94;72.69;97202.09;1224536;75;2923033;-66
2024/01/08 03:51:35;;;;;;;2.20;1.20;;;;;;;1.99;72.28;97210.41;1224126;83;2915026;-63
2024/01/08 03:54:08;;;;;;;1.35;1.20;;;;;;;2.04;72.76;97207.19;1225152;75;2920666;-64
2024/01/08 03:56:44;;;;;;;1.85;1.20;;;;;;;1.98;70.78;97208.16;1224571;75;2922391;-67
2024/01/08 03:59:17;;;;;;;1.30;1.20;;;;;;;1.97;70.47;97206.63;1224164;75;2924744;-64
2024/01/08 04:01:50;;;;;;;2.30;1.65;;;;;;;1.93;81.55;97228.34;1225597;75;2931168;-68
2024/01/08 04:04:23;;;;;;;5.20;3.65;;;;;;;1.56;88.89;97218.91;1225570;75;2918314;-64
2024/01/08 04:06:56;;;;;;;6.10;3.40;;;;;;;1.52;95.02;97224.41;1225261;75;2916723;-69
2024/01/08 04:09:30;;;;;;;5.15;3.80;;;;;;;1.58;97.25;97224.66;1225714;75;2914484;-63
2024/01/08 04:12:05;;;;;;;4.55;3.95;;;;;;;1.49;100.00;97223.34;1210276;75;3983825;-65
2024/01/08 04:14:38;;;;;;;4.50;3.20;;;;;;;1.56;100.00;97230.47;1224048;75;2915450;-63
2024/01/08 04:17:11;;;;;;;3.40;2.85;;;;;;;1.59;100.00;97231.56;1225268;75;2935604;-67
2024/01/08 04:19:44;;;;;;;3.30;2.90;;;;;;;1.62;100.00;97225.31;1226226;75;2924786;-65
2024/01/08 04:22:17;;;;;;;3.50;2.95;;;;;;;1.46;100.00;97242.28;1224196;75;2957700;-67
2024/01/08 04:24:49;;;;;;;3.90;3.30;;;;;;;1.47;100.00;97238.44;1225290;75;2932748;-68
2024/01/08 04:27:25;;;;;;;3.80;3.00;;;;;;;1.40;100.00;97246.69;1224589;75;2920137;-67
2024/01/08 04:29:58;;;;;;;3.50;2.95;;;;;;;1.47;100.00;97247.28;1224725;75;2919888;-65
2024/01/08 04:32:30;;;;;;;2.70;2.40;;;;;;;1.41;100.00;97248.97;1224624;75;2924525;-66
2024/01/08 04:35:03;;;;;;;3.00;2.55;;;;;;;1.28;100.00;97250.84;1224850;75;2923260;-64
2024/01/08 04:37:36;;;;;;;4.00;2.95;;;;;;;1.34;100.00;97257.22;1224667;75;2914046;-67
2024/01/08 04:40:11;;;;;;;4.00;3.10;;;;;;;1.36;100.00;97262.22;1225165;75;2925596;-67
2024/01/08 04:42:46;;;;;;;3.80;3.00;;;;;;;1.27;100.00;97265.50;1225093;75;2922515;-66
2024/01/08 04:45:19;;;;;;;3.30;2.90;;;;;;;1.35;100.00;97266.84;1224955;75;2914755;-65
2024/01/08 04:47:52;;;;;;;3.25;2.80;;;;;;;1.31;100.00;97268.13;1224992;75;2924382;-66
2024/01/08 04:50:25;;;;;;;3.80;2.95;;;;;;;1.24;100.00;97272.50;1224171;75;2923498;-66
2024/01/08 04:52:58;;;;;;;3.15;2.85;;;;;;;1.19;100.00;97277.63;1224687;75;2925962;-66
2024/01/08 04:55:31;;;;;;;3.05;2.65;;;;;;;1.31;100.00;97276.19;1223568;75;2921593;-66
2024/01/08 04:58:08;;;;;;;2.70;2.50;;;;;;;1.39;100.00;97286.38;1224601;75;2929182;-67
2024/01/08 05:00:41;;;;;;;3.90;3.50;;;;;;;1.06;100.00;97281.00;1224798;75;2924147;-67
2024/01/08 05:03:15;;;;;;;3.85;3.10;;;;;;;1.08;100.00;97285.97;1223500;75;2935630;-65
2024/01/08 05:05:48;;;;;;;3.65;3.15;;;;;;;1.25;100.00;97292.13;1224742;75;2916819;-66
2024/01/08 05:08:21;;;;;;;3.25;2.95;;;;;;;1.11;100.00;97293.22;1224551;75;2921854;-66
2024/01/08 05:10:54;;;;;;;4.00;3.40;;;;;;;1.06;100.00;97291.78;1224899;75;2920250;-63
2024/01/08 05:13:29;;;;;;;4.55;3.50;;;;;;;1.21;100.00;97294.91;1224782;75;2921801;-64
2024/01/08 05:16:01;;;;;;;4.85;4.00;;;;;;;0.78;100.00;97298.59;1223423;75;2921057;-66
2024/01/08 05:18:34;;;;;;;5.70;4.50;;;;;;;0.78;100.00;97306.66;1224124;75;2923357;-68
2024/01/08 05:21:08;;;;;;;12.77;9.52;;;;;;;0.89;100.00;97308.34;1198251;75;5249130;-64
2024/01/08 05:23:41;;;;;;;7.05;5.60;;;;;;;1.10;100.00;97313.25;1222755;75;2962026;-64
2024/01/08 05:26:14;;;;;;;6.15;5.30;;;;;;;1.12;100.00;97320.94;1224142;75;2927170;-66
2024/01/08 05:28:49;;;;;;;5.80;4.55;;;;;;;1.08;100.00;97317.56;1224590;75;2923171;-65
2024/01/08 05:31:22;;;;;;;7.20;5.60;;;;;;;0.91;100.00;97320.22;1223415;75;2920966;-65
2024/01/08 05:33:55;;;;;;;5.70;4.60;;;;;;;0.94;100.00;97326.72;1222384;75;2926196;-65
2024/01/08 05:36:28;;;;;;;7.35;5.25;;;;;;;0.69;100.00;97319.19;1223820;75;2931669;-66
2024/01/08 05:39:01;;;;;;;5.40;4.70;;;;;;;0.60;100.00;97334.00;1223286;75;2931146;-65
2024/01/08 05:41:35;;;;;;;47.90;35.65;;;;;;;0.77;100.00;97332.09;1223678;75;2931794;-65
2024/01/08 05:44:11;;;;;;;15.60;12.85;;;;;;;0.69;100.00;97340.75;1224738;75;2920318;-66
2024/01/08 05:46:45;;;;;;;6.60;5.70;;;;;;;0.58;100.00;97338.28;1223685;75;2939625;-66
2024/01/08 05:49:18;;;;;;;6.05;4.90;;;;;;;0.59;100.00;97337.09;1224740;75;2921978;-65
2024/01/08 05:51:51;;;;;;;4.40;4.00;;;;;;;0.74;100.00;97338.31;1223769;75;2918176;-64
2024/01/08 05:54:26;;;;;;;4.80;4.00;;;;;;;0.63;100.00;97346.63;1223559;75;2924497;-64
2024/01/08 05:56:59;;;;;;;4.80;3.45;;;;;;;0.92;100.00;97346.03;1223411;75;2925722;-66
2024/01/08 05:59:34;;;;;;;4.05;3.30;;;;;;;0.75;100.00;97345.22;1222829;75;2931763;-66
2024/01/08 06:02:07;;;;;;;4.45;3.55;;;;;;;0.66;100.00;97350.41;1223584;75;2950247;-68
2024/01/08 06:04:40;;;;;;;4.45;3.80;;;;;;;0.54;100.00;97359.13;1223601;75;2923268;-66
2024/01/08 06:07:13;;;;;;;6.10;4.75;;;;;;;0.35;100.00;97356.03;1223256;75;2942360;-66
2024/01/08 06:09:46;;;;;;;7.15;4.70;;;;;;;0.50;100.00;97369.22;1222820;75;2945723;-68
2024/01/08 06:12:20;;;;;;;5.25;4.35;;;;;;;0.33;100.00;97363.75;1223847;75;2926824;-66
2024/01/08 06:14:56;;;;;;;5.90;5.05;;;;;;;0.40;100.00;97363.63;1223360;75;2929265;-66
2024/01/08 06:17:28;;;;;;;6.70;5.10;;;;;;;0.39;100.00;97366.75;1224111;75;2921606;-67
2024/01/08 06:20:01;;;;;;;5.70;5.00;;;;;;;0.29;100.00;97362.31;1223580;75;2928307;-65
2024/01/08 06:22:34;;;;;;;6.05;4.80;;;;;;;0.39;100.00;97367.50;1223164;75;2925266;-65
2024/01/08 06:25:08;;;;;;;6.20;4.50;;;;;;;0.28;100.00;97369.63;1223870;75;2930785;-65
2024/01/08 06:27:40;;;;;;;6.00;4.90;;;;;;;0.13;100.00;97382.59;1223702;75;2927162;-66
2024/01/08 06:30:17;;;;;;;7.90;5.50;;;;;;;0.18;100.00;97376.72;1223355;75;2929125;-66
2024/01/08 06:32:50;;;;;;;6.85;5.40;;;;;;;0.39;100.00;97380.97;1224007;75;2938871;-66
2024/01/08 06:35:23;;;;;;;7.75;4.90;;;;;;;0.34;100.00;97386.06;1219565;75;2927247;-65
2024/01/08 06:37:56;;;;;;;7.00;4.90;;;;;;;0.46;100.00;97387.38;1220029;75;2924538;-66
2024/01/08 06:40:32;;;;;;;6.50;5.00;;;;;;;0.38;100.00;97398.28;1212715;75;3199402;-66
2024/01/08 06:43:05;;;;;;;6.70;5.45;;;;;;;0.21;100.00;97394.72;1222035;75;2932843;-66
2024/01/08 06:45:40;;;;;;;6.35;4.60;;;;;;;0.41;100.00;97397.47;1222852;75;2918836;-66
2024/01/08 06:48:13;;;;;;;6.00;4.10;;;;;;;0.46;100.00;97392.75;1222501;75;2927933;-65
2024/01/08 06:50:46;;;;;;;4.40;3.70;;;;;;;0.31;100.00;97403.03;1223882;75;2923293;-65
2024/01/08 06:53:24;;;;;;;5.75;4.45;;;;;;;0.35;100.00;97415.25;1223319;75;2919224;-66
2024/01/08 06:55:57;;;;;;;;;;;;;;;0.20;100.00;97400.56;1225144;75;2925017;-66
2024/01/08 06:58:30;;;;;;;6.55;5.05;;;;;;;0.36;100.00;97403.34;1222151;83;2920207;-65
2024/01/08 07:01:05;;;;;;;7.80;5.70;;;;;;;0.06;100.00;97406.94;1221928;75;2927637;-66
2024/01/08 07:03:39;;;;;;;12.15;8.60;;;;;;;0.06;100.00;97406.94;1222286;75;2925258;-66
2024/01/08 07:06:12;;;;;;;10.90;8.40;;;;;;;0.06;100.00;97411.56;1223603;75;2933523;-63
2024/01/08 07:08:45;;;;;;;8.10;5.90;;;;;;;0.13;100.00;97409.50;1222114;75;2928417;-65
2024/01/08 07:11:25;;;;;;;9.90;6.70;;;;;;;-0.07;100.00;97411.41;1222295;75;2922287;-66
2024/01/08 07:13:58;;;;;;;7.70;4.90;;;;;;;0.10;100.00;97423.03;1222119;75;2918810;-67
2024/01/08 07:16:34;;;;;;;5.00;4.45;;;;;;;0.20;100.00;97428.22;1222706;75;2959261;-64
2024/01/08 07:19:08;;;;;;;5.65;4.65;;;;;;;0.10;100.00;97437.25;1222799;75;2928447;-65
2024/01/08 07:21:41;;;;;;;5.60;4.45;;;;;;;0.30;100.00;97444.59;1223064;75;2932413;-66
2024/01/08 07:24:14;;;;;;;5.85;4.95;;;;;;;0.07;100.00;97438.06;1220902;75;2923785;-63
2024/01/08 07:26:46;;;;;;;6.95;4.90;;;;;;;0.03;100.00;97444.69;1224151;75;2923061;-66
2024/01/08 07:29:19;;;;;;;5.40;4.50;;;;;;;-0.14;100.00;97444.56;1221033;75;2928779;-62
2024/01/08 07:31:55;;;;;;;5.65;4.55;;;;;;;-0.08;100.00;97442.91;1222799;75;2932035;-64
2024/01/08 07:34:28;;;;;;;6.05;4.90;;;;;;;-0.08;100.00;97459.06;1221044;75;2962568;-68
2024/01/08 07:37:00;;;;;;;6.85;5.20;;;;;;;-0.02;100.00;97454.75;1222347;75;2937339;-64
2024/01/08 07:39:33;;;;;;;5.80;4.70;;;;;;;0.03;100.00;97464.28;1221199;75;2926327;-66
2024/01/08 07:42:08;;;;;;;7.70;5.45;;;;;;;-0.06;100.00;97472.13;1223642;75;2930432;-65
2024/01/08 07:44:41;;;;;;;6.95;5.60;;;;;;;-0.12;100.00;97477.22;1222231;75;2923560;-65
2024/01/08 07:47:16;;;;;;;6.25;4.95;;;;;;;-0.01;100.00;97487.78;1222250;75;2936405;-64
2024/01/08 07:49:49;;;;;;;6.65;4.90;;;;;;;0.04;100.00;97481.19;1222300;75;2917469;-65
2024/01/08 07:52:22;;;;;;;6.40;5.05;;;;;;;0.01;100.00;97490.09;1222842;75;2930257;-62
2024/01/08 07:54:56;;;;;;;6.55;5.30;;;;;;;0.08;100.00;97481.91;1221760;75;2924425;-66
2024/01/08 07:57:28;;;;;;;7.60;5.70;;;;;;;0.11;100.00;97497.22;1223629;75;2919396;-66
2024/01/08 08:00:01;;;;;;;7.75;6.10;;;;;;;-0.11;100.00;97497.56;1221446;75;2919880;-65
2024/01/08 08:02:37;;;;;;;8.20;5.55;;;;;;;-0.15;100.00;97501.47;1223615;75;2924386;-67
2024/01/08 08:05:10;;;;;;;7.15;5.15;;;;;;;-0.23;100.00;97503.50;1222668;75;2918509;-67
2024/01/08 08:07:43;;;;;;;6.40;5.00;;;;;;;-0.05;100.00;97511.28;1223383;75;2924411;-65
2024/01/08 08:10:16;;;;;;;6.30;5.10;;;;;;;-0.03;100.00;97520.47;1223395;83;2928041;-65
2024/01/08 08:12:49;;;;;;;6.30;4.40;;;;;;;0.07;100.00;97524.19;1222858;75;2910947;-64
2024/01/08 08:15:22;;;;;;;6.45;4.90;;;;;;;-0.05;100.00;97517.47;1220151;75;2931677;-64
2024/01/08 08:17:58;;;;;;;5.85;4.25;;;;;;;0.04;100.00;97518.84;1222369;75;2936502;-65
2024/01/08 08:20:31;;;;;;;7.00;5.25;;;;;;;-0.04;100.00;97524.34;1219691;75;2921281;-64
2024/01/08 08:23:03;;;;;;;5.45;4.35;;;;;;;0.01;100.00;97533.91;1223014;75;2933820;-64
2024/01/08 08:25:36;;;;;;;5.60;4.65;;;;;;;-0.02;100.00;97527.41;1220932;75;2933533;-65
2024/01/08 08:28:10;;;;;;;4.95;4.20;;;;;;;0.02;100.00;97538.09;1223448;75;2920072;-65
2024/01/08 08:30:43;;;;;;;8.45;4.30;;;;;;;0.13;100.00;97540.63;1221431;75;2925153;-63
2024/01/08 08:33:18;;;;;;;5.25;3.95;;;;;;;0.11;100.00;97541.03;1222024;75;2917108;-64
2024/01/08 08:35:52;;;;;;;4.40;3.55;;;;;;;0.14;100.00;97547.53;1219104;75;2926106;-66
2024/01/08 08:38:26;;;;;;;5.35;3.35;;;;;;;0.14;100.00;97547.53;1221707;75;2930933;-63
2024/01/08 08:41:01;;;;;;;4.35;3.70;;;;;;;0.32;100.00;97556.09;1222132;75;2922141;-67
2024/01/08 08:43:34;;;;;;;4.80;4.15;;;;;;;-0.16;100.00;97554.50;1221666;75;2928845;-65
2024/01/08 08:46:07;;;;;;;5.45;4.10;;;;;;;0.06;100.00;97552.25;1222783;75;2921975;-65
2024/01/08 08:48:43;;;;;;;5.20;4.60;;;;;;;-0.10;100.00;97560.94;1222319;75;2921602;-65
2024/01/08 08:51:15;;;;;;;7.45;5.20;;;;;;;-0.07;100.00;97572.84;1223567;75;2933172;-63
2024/01/08 08:53:48;;;;;;;7.25;5.10;;;;;;;0.05;100.00;97571.50;1222251;75;2921604;-66
2024/01/08 08:56:21;;;;;;;5.30;4.10;;;;;;;0.07;100.00;97569.94;1223011;75;2935941;-65
2024/01/08 08:58:54;;;;;;;6.20;4.75;;;;;;;0.00;100.00;97583.50;1221570;75;2921297;-64
2024/01/08 09:01:27;;;;;;;6.45;3.70;;;;;;;-0.22;100.00;97583.81;1223271;75;2922381;-64
2024/01/08 09:04:02;;;;;;;6.75;4.00;;;;;;;-0.09;100.00;97586.69;1220330;75;2915483;-65
2024/01/08 09:06:35;;;;;;;4.60;3.75;;;;;;;0.02;100.00;97588.47;1223609;75;2922294;-66
2024/01/08 09:09:11;;;;;;;5.35;3.95;;;;;;;0.03;100.00;97593.47;1220938;75;2921803;-65
2024/01/08 09:11:46;;;;;;;4.80;3.80;;;;;;;0.15;100.00;97600.22;1222742;75;2921001;-65
2024/01/08 09:14:20;;;;;;;5.85;3.70;;;;;;;0.12;100.00;97607.16;1221677;75;2926284;-63
2024/01/08 09:16:53;;;;;;;5.60;4.15;;;;;;;0.18;100.00;97602.09;1223074;75;2921168;-65
2024/01/08 09:19:28;;;;;;;4.50;3.70;;;;;;;-0.08;100.00;97606.28;1222925;75;2921238;-65
2024/01/08 09:22:01;;;;;;;5.75;4.05;;;;;;;-0.05;100.00;97613.53;1222476;75;2931179;-65
2024/01/08 09:24:34;;;;;;;4.35;3.50;;;;;;;0.03;100.00;97628.44;1220617;75;2922608;-64
2024/01/08 09:27:07;;;;;;;4.60;3.70;;;;;;;0.17;100.00;97619.41;1222886;75;2916194;-65
2024/01/08 09:29:40;;;;;;;6.50;5.20;;;;;;;0.18;100.00;97608.22;1221942;75;2921707;-68
2024/01/08 09:32:13;;;;;;;11.10;6.90;;;;;;;0.11;100.00;97626.41;1222106;75;2919904;-64
2024/01/08 09:34:48;;;;;;;5.45;4.30;;;;;;;0.07;100.00;97621.06;1221620;75;2918159;-64
2024/01/08 09:37:22;;;;;;;4.90;3.80;;;;;;;0.25;100.00;97623.50;1222350;75;2926760;-65
2024/01/08 09:39:56;;;;;;;4.55;3.50;;;;;;;0.24;99.98;97632.00;1221270;75;2927119;-63
2024/01/08 09:42:31;;;;;;;5.00;3.65;;;;;;;0.17;100.00;97628.25;1223138;75;2928443;-66
2024/01/08 09:45:06;;;;;;;4.55;3.45;;;;;;;0.11;100.00;97637.94;1220510;75;2923699;-66
2024/01/08 09:47:40;;;;;;;5.10;4.05;;;;;;;0.03;100.00;97635.75;1223030;75;2923135;-65
2024/01/08 09:50:18;;;;;;;5.00;3.70;;;;;;;-0.06;100.00;97638.94;1220441;75;2923556;-65
2024/01/08 09:52:53;;;;;;;4.30;3.70;;;;;;;0.00;100.00;97637.34;1223417;75;2910592;-63
2024/01/08 09:55:26;;;;;;;5.45;3.70;;;;;;;0.11;100.00;97643.31;1221684;75;2922682;-64
2024/01/08 09:57:58;;;;;;;6.15;4.40;;;;;;;0.24;100.00;97648.13;1223817;75;2914620;-65
2024/01/08 10:00:31;;;;;;;5.50;3.85;;;;;;;0.46;100.00;97648.59;1221144;75;2919492;-65
2024/01/08 10:03:04;;;;;;;4.95;3.75;;;;;;;0.24;100.00;97646.22;1224006;75;2916738;-66
2024/01/08 10:05:41;;;;;;;4.95;3.75;;;;;;;0.20;100.00;97645.50;1220606;75;2924742;-64
2024/01/08 10:08:16;;;;;;;5.80;4.25;;;;;;;0.24;100.00;97645.44;1223727;75;2920423;-65
2024/01/08 10:10:50;;;;;;;5.10;3.80;;;;;;;0.51;100.00;97643.53;1221567;75;2925789;-65
2024/01/08 10:13:23;;;;;;;5.05;4.05;;;;;;;0.40;100.00;97651.00;1221338;75;2921551;-65
2024/01/08 10:15:56;;;;;;;5.55;4.00;;;;;;;0.42;100.00;97645.97;1221976;75;2920547;-66
2024/01/08 10:18:31;;;;;;;5.55;3.95;;;;;;;0.40;100.00;97649.06;1223084;75;2930065;-64
2024/01/08 10:21:17;;;;;;;5.05;3.80;;;;;;;0.53;100.00;97649.25;1222560;75;2940433;-66
2024/01/08 10:23:50;;;;;;;3.85;3.45;;;;;;;0.66;100.00;97652.13;1224018;75;2915626;-65
2024/01/08 10:26:26;;;;;;;4.35;3.60;;;;;;;0.82;100.00;97652.25;1224841;75;2910434;-64
2024/01/08 10:28:59;;;;;;;11.15;8.10;;;;;;;0.42;100.00;97648.66;1222740;75;2927074;-65
2024/01/08 10:31:32;;;;;;;7.85;5.35;;;;;;;0.56;100.00;97643.06;1223879;75;2902421;-66
2024/01/08 10:34:09;;;;;;;6.05;4.70;;;;;;;0.34;100.00;97648.00;1221871;75;2927941;-66
2024/01/08 10:36:46;;;;;;;5.20;3.70;;;;;;;0.66;100.00;97646.75;1222720;75;2938511;-65
2024/01/08 10:39:20;;;;;;;4.40;3.60;;;;;;;0.76;100.00;97647.75;1223174;75;2917619;-65
2024/01/08 10:41:54;;;;;;;4.60;3.90;;;;;;;0.69;100.00;97648.63;1224142;75;2922445;-65
2024/01/08 10:44:26;;;;;;;4.90;4.20;;;;;;;0.48;100.00;97649.72;1220831;75;2920515;-67
2024/01/08 10:47:03;;;;;;;6.10;3.40;;;;;;;0.98;100.00;97653.53;1223669;75;2924106;-66
2024/01/08 10:49:38;;;;;;;4.75;3.20;;;;;;;1.10;98.36;97655.63;1222624;75;2917239;-65
2024/01/08 10:52:28;;;;;;;4.95;3.80;;;;;;;1.24;98.20;97652.69;1222588;75;2926660;-64
2024/01/08 10:55:02;;;;;;;5.30;3.90;;;;;;;0.81;95.88;97645.34;1224266;75;2928674;-65
2024/01/08 10:57:45;;;;;;;6.05;4.30;;;;;;;0.77;100.00;97647.34;1224903;75;2915621;-65
2024/01/08 11:00:19;;;;;;;6.55;5.40;;;;;;;0.96;100.00;97647.78;1222870;75;2925500;-67
2024/01/08 11:02:53;;;;;;;6.95;6.25;;;;;;;0.78;100.00;97646.16;1223921;75;2922140;-66
2024/01/08 11:05:26;;;;;;;9.35;8.35;;;;;;;0.69;100.00;97643.22;1224614;75;2918478;-63
2024/01/08 11:08:01;;;;;;;7.00;5.60;;;;;;;0.67;98.67;97642.88;1223656;75;2920975;-67
2024/01/08 11:10:35;;;;;;;5.65;4.30;;;;;;;0.73;99.43;97641.25;1222899;75;2919853;-65
2024/01/08 11:13:09;;;;;;;4.45;3.90;;;;;;;1.08;96.65;97644.50;1223959;75;2923394;-65
2024/01/08 11:15:46;;;;;;;5.10;3.55;;;;;;;1.17;96.37;97647.41;1223269;75;2930255;-65
2024/01/08 11:18:29;;;;;;;6.55;3.90;;;;;;;1.00;98.23;97645.81;1220301;75;2926318;-63
2024/01/08 11:21:02;;;;;;;5.25;4.30;;;;;;;0.40;100.00;97643.66;1223049;75;2923847;-66
2024/01/08 11:23:40;;;;;;;6.35;5.00;;;;;;;0.61;100.00;97647.97;1222921;75;2922180;-64
2024/01/08 11:26:25;;;;;;;7.90;6.10;;;;;;;0.61;100.00;97641.81;1223173;75;2925304;-65
2024/01/08 11:29:09;;;;;;;7.90;5.30;;;;;;;1.22;97.48;97646.19;1223460;75;2924035;-64
2024/01/08 11:32:34;;;;;;;6.20;5.10;;;;;;;1.05;99.35;97640.69;1221254;75;2918137;-64
2024/01/08 11:35:13;;;;;;;5.10;4.25;;;;;;;1.22;97.21;97652.34;1196871;75;4932491;-65
2024/01/08 11:37:46;;;;;;;6.85;4.70;;;;;;;0.87;99.32;97652.94;1223424;75;2921132;-66
2024/01/08 11:40:23;;;;;;;6.15;4.60;;;;;;;1.12;98.70;97641.75;1222729;75;2930164;-66
2024/01/08 11:42:56;;;;;;;4.60;3.80;;;;;;;1.04;98.75;97651.91;1224810;75;2925848;-64
2024/01/08 11:45:29;;;;;;;5.95;4.75;;;;;;;0.69;98.81;97648.63;1222321;75;2920376;-66
2024/01/08 11:48:02;;;;;;;5.55;4.45;;;;;;;0.74;98.67;97653.53;1222527;75;2926504;-65
2024/01/08 11:50:36;;;;;;;5.90;4.85;;;;;;;0.76;99.50;97653.88;1222521;75;2921228;-64